Time;durP1;ratioP1;P1;durP2;ratioP2;P2;SDS_P1;SDS_P2;PMS_P1;PMS_P2;Temp;Humidity;BMP_temperature;BMP_pressure;BME280_temperature;BME280_humidity;BME280_pressure;Samples;Min_cycle;Max_cycle;Signal;HPM_P1;HPM_P2
2021/06/27 00:00:14;;;;;;;1.50;1.27;;;;;;;17.40;100.00;93222.88;5036218;28;20489;-88
2021/06/27 00:02:41;;;;;;;2.45;1.52;;;;;;;17.39;100.00;93219.50;5050837;28;20057;-87
2021/06/27 00:05:12;;;;;;;1.73;1.15;;;;;;;17.33;100.00;93225.69;5043794;28;20046;-87
2021/06/27 00:07:41;;;;;;;2.40;1.67;;;;;;;17.29;100.00;93222.81;5039329;28;20052;-87
2021/06/27 00:10:11;;;;;;;1.00;0.88;;;;;;;17.25;100.00;93219.16;5038965;28;20045;-87
2021/06/27 00:12:38;;;;;;;3.97;0.93;;;;;;;17.24;100.00;93222.78;5039321;28;20056;-87
2021/06/27 00:15:07;;;;;;;3.33;1.25;;;;;;;17.23;100.00;93216.81;5039501;28;20045;-87
2021/06/27 00:17:34;;;;;;;2.03;1.05;;;;;;;17.11;100.00;93224.00;5040719;28;20045;-87
2021/06/27 00:20:01;;;;;;;2.78;1.98;;;;;;;17.27;100.00;93222.28;5039306;28;20041;-88
2021/06/27 00:22:28;;;;;;;1.42;0.93;;;;;;;16.69;100.00;93221.09;5038797;28;20049;-87
2021/06/27 00:24:56;;;;;;;1.85;1.30;;;;;;;16.76;100.00;93215.69;5040342;28;20051;-87
2021/06/27 00:27:23;;;;;;;5.05;0.80;;;;;;;16.75;100.00;93208.16;5039659;28;20077;-87
2021/06/27 00:29:49;;;;;;;1.27;0.98;;;;;;;16.83;100.00;93207.69;5038551;28;20060;-87
2021/06/27 00:32:16;;;;;;;1.35;1.00;;;;;;;16.94;100.00;93224.13;5038718;28;20042;-87
2021/06/27 00:34:43;;;;;;;1.00;0.80;;;;;;;16.92;100.00;93218.38;5039015;28;20412;-87
2021/06/27 00:37:10;;;;;;;2.35;0.85;;;;;;;17.00;100.00;93207.56;5044000;28;20068;-87
2021/06/27 00:39:37;;;;;;;1.15;0.77;;;;;;;16.92;100.00;93193.25;5042923;28;20097;-87
2021/06/27 00:42:06;;;;;;;1.13;0.65;;;;;;;16.99;100.00;93205.97;5043155;28;20041;-87
2021/06/27 00:44:33;;;;;;;1.20;0.63;;;;;;;16.93;100.00;93210.38;5044625;28;20052;-87
2021/06/27 00:47:00;;;;;;;1.27;0.82;;;;;;;16.97;100.00;93202.84;5042824;28;20046;-87
2021/06/27 00:49:27;;;;;;;0.77;0.60;;;;;;;16.87;100.00;93185.41;5037314;28;20053;-87
2021/06/27 00:51:54;;;;;;;2.53;0.73;;;;;;;16.89;100.00;93211.13;5033498;28;20406;-87
2021/06/27 00:54:20;;;;;;;1.45;0.63;;;;;;;16.86;100.00;93204.63;5033566;28;20049;-87
2021/06/27 00:56:47;;;;;;;2.33;0.80;;;;;;;16.77;100.00;93188.72;5033553;28;20107;-86
2021/06/27 00:59:15;;;;;;;1.58;1.00;;;;;;;16.68;100.00;93201.34;5033475;28;20068;-88
2021/06/27 01:01:42;;;;;;;1.42;1.05;;;;;;;16.26;100.00;93202.81;5033144;28;20486;-87
2021/06/27 01:04:09;;;;;;;1.40;0.98;;;;;;;16.37;100.00;93197.72;5033236;28;20045;-86
2021/06/27 01:06:36;;;;;;;1.67;0.95;;;;;;;16.44;100.00;93198.31;5033176;28;20045;-87
2021/06/27 01:09:04;;;;;;;1.60;0.73;;;;;;;16.46;100.00;93198.84;5033236;28;20064;-86
2021/06/27 01:11:32;;;;;;;7.25;1.48;;;;;;;16.40;100.00;93194.66;5033168;28;20502;-87
2021/06/27 01:14:01;;;;;;;2.67;1.42;;;;;;;16.37;100.00;93201.09;5033096;28;20489;-87
2021/06/27 01:16:29;;;;;;;1.63;1.23;;;;;;;16.32;100.00;93202.84;5032929;28;20214;-88
2021/06/27 01:18:56;;;;;;;3.45;1.83;;;;;;;16.32;100.00;93195.06;5033137;28;20152;-87
2021/06/27 01:21:25;;;;;;;1.73;1.30;;;;;;;16.35;100.00;93192.00;5032865;28;20055;-86
2021/06/27 01:23:51;;;;;;;1.83;1.48;;;;;;;16.37;100.00;93182.16;5033227;28;20473;-87
2021/06/27 01:26:18;;;;;;;1.75;0.80;;;;;;;16.39;100.00;93182.72;5033077;28;20486;-87
2021/06/27 01:28:45;;;;;;;1.20;0.95;;;;;;;16.39;100.00;93187.91;5032672;28;20045;-86
2021/06/27 01:31:12;;;;;;;5.43;0.98;;;;;;;16.38;100.00;93184.53;5032962;28;20411;-86
2021/06/27 01:33:39;;;;;;;5.32;1.90;;;;;;;16.37;100.00;93195.91;5032754;28;20052;-86
2021/06/27 01:36:06;;;;;;;1.80;0.70;;;;;;;16.37;100.00;93200.31;5032890;28;20451;-87
2021/06/27 01:38:35;;;;;;;6.25;1.13;;;;;;;16.26;100.00;93200.22;5032785;28;20049;-86
2021/06/27 01:41:03;;;;;;;2.28;1.55;;;;;;;16.23;100.00;93194.75;5032575;28;20049;-87
2021/06/27 01:43:30;;;;;;;4.07;2.08;;;;;;;16.15;100.00;93201.94;5032644;28;20132;-88
2021/06/27 01:45:59;;;;;;;1.00;0.60;;;;;;;16.14;100.00;93205.56;5032305;28;20059;-87
2021/06/27 01:48:27;;;;;;;3.55;1.75;;;;;;;16.12;100.00;93197.22;5032348;28;20056;-87
2021/06/27 01:50:55;;;;;;;0.95;0.85;;;;;;;16.09;100.00;93196.94;5032328;28;20505;-86
2021/06/27 01:53:25;;;;;;;1.42;0.70;;;;;;;16.05;100.00;93191.47;5032415;28;20143;-86
2021/06/27 01:56:05;;;;;;;1.38;0.70;;;;;;;16.03;100.00;93185.75;5032165;28;20049;-87
2021/06/27 01:58:33;;;;;;;2.13;0.90;;;;;;;16.06;100.00;93192.25;5032751;28;20114;-87
2021/06/27 02:01:00;;;;;;;1.92;0.95;;;;;;;16.03;100.00;93196.13;5032146;28;20049;-87
2021/06/27 02:03:27;;;;;;;6.07;1.25;;;;;;;15.99;100.00;93201.00;5032161;28;20049;-87
2021/06/27 02:05:54;;;;;;;1.75;0.77;;;;;;;15.98;100.00;93204.59;5032171;28;20049;-86
2021/06/27 02:08:20;;;;;;;5.22;0.98;;;;;;;15.96;100.00;93203.31;5032008;28;20052;-88
2021/06/27 02:10:47;;;;;;;1.58;0.95;;;;;;;15.85;100.00;93186.81;5032321;28;20057;-87
2021/06/27 02:13:16;;;;;;;2.67;1.73;;;;;;;15.90;100.00;93194.66;5032197;28;20080;-87
2021/06/27 02:15:42;;;;;;;5.90;1.38;;;;;;;15.92;100.00;93195.19;5031890;28;20103;-87
2021/06/27 02:18:27;;;;;;;2.72;0.85;;;;;;;15.92;100.00;93189.25;5031931;28;20050;-86
2021/06/27 02:20:54;;;;;;;1.23;0.98;;;;;;;15.89;100.00;93188.69;5031751;28;20091;-86
2021/06/27 02:23:21;;;;;;;1.65;0.82;;;;;;;15.85;100.00;93186.81;5031767;28;20440;-86
2021/06/27 02:25:48;;;;;;;0.90;0.75;;;;;;;15.73;100.00;93174.78;5031365;28;20099;-87
2021/06/27 02:28:16;;;;;;;1.15;0.88;;;;;;;15.80;100.00;93197.13;5031711;28;20057;-86
2021/06/27 02:30:43;;;;;;;1.80;1.00;;;;;;;15.74;100.00;93197.06;5031697;28;20064;-86
2021/06/27 02:33:10;;;;;;;1.75;0.70;;;;;;;15.74;100.00;93191.91;5031572;28;20555;-87
2021/06/27 02:35:37;;;;;;;4.43;1.40;;;;;;;15.54;100.00;93166.56;5031438;28;20493;-87
2021/06/27 02:38:04;;;;;;;0.90;0.75;;;;;;;15.66;100.00;93183.78;5031641;28;20421;-86
2021/06/27 02:40:32;;;;;;;4.57;0.98;;;;;;;15.70;100.00;93182.28;5031619;28;20119;-86
2021/06/27 02:42:59;;;;;;;0.98;0.65;;;;;;;15.62;100.00;93184.28;5031579;28;20045;-87
2021/06/27 02:45:27;;;;;;;1.85;1.05;;;;;;;15.63;100.00;93198.78;5031551;28;20052;-86
2021/06/27 02:47:54;;;;;;;5.10;1.00;;;;;;;15.57;100.00;93184.22;5031295;28;20064;-86
2021/06/27 02:50:21;;;;;;;1.08;0.88;;;;;;;15.68;100.00;93192.06;5031217;28;20580;-87
2021/06/27 02:52:47;;;;;;;5.00;1.38;;;;;;;15.63;100.00;93190.22;5031399;28;20049;-86
2021/06/27 02:55:15;;;;;;;0.90;0.73;;;;;;;15.23;100.00;93140.31;5031314;28;20099;-86
2021/06/27 02:57:43;;;;;;;8.13;1.67;;;;;;;15.62;100.00;93194.63;5030829;28;20640;-87
2021/06/27 03:00:13;;;;;;;0.98;0.68;;;;;;;15.60;100.00;93196.66;5030907;28;20045;-88
2021/06/27 03:02:41;;;;;;;0.80;0.60;;;;;;;15.62;100.00;93199.00;5030925;28;20049;-86
2021/06/27 03:05:10;;;;;;;6.72;1.63;;;;;;;15.68;100.00;93210.19;5031263;28;20398;-85
2021/06/27 03:07:37;;;;;;;1.88;0.90;;;;;;;15.62;100.00;93204.97;5031097;28;20037;-86
2021/06/27 03:10:05;;;;;;;3.10;1.10;;;;;;;15.59;100.00;93210.63;5030955;28;20049;-87
2021/06/27 03:12:32;;;;;;;4.55;1.25;;;;;;;15.61;100.00;93213.75;5030904;28;20049;-86
2021/06/27 03:14:58;;;;;;;1.85;1.27;;;;;;;15.62;100.00;93217.13;5030828;28;20128;-86
2021/06/27 03:17:25;;;;;;;1.75;1.30;;;;;;;15.63;100.00;93219.50;5030826;28;20421;-85
2021/06/27 03:19:53;;;;;;;1.88;1.48;;;;;;;15.67;100.00;93219.00;5031379;28;20050;-88
2021/06/27 03:22:20;;;;;;;1.20;0.70;;;;;;;15.60;100.00;93225.13;5030821;28;20054;-87
2021/06/27 03:24:47;;;;;;;2.33;0.93;;;;;;;15.55;100.00;93225.06;5045610;28;20492;-87
2021/06/27 03:27:14;;;;;;;3.13;1.60;;;;;;;15.57;100.00;93219.66;5050692;28;20045;-86
2021/06/27 03:29:42;;;;;;;3.90;2.65;;;;;;;15.56;100.00;93216.28;5050439;28;20053;-87
2021/06/27 03:32:09;;;;;;;1.95;1.27;;;;;;;15.63;100.00;93221.28;5050772;28;20059;-86
2021/06/27 03:34:36;;;;;;;1.80;1.42;;;;;;;15.61;100.00;93218.94;5050793;28;20051;-85
2021/06/27 03:37:05;;;;;;;10.15;2.35;;;;;;;15.50;100.00;93192.16;5050777;28;20052;-86
2021/06/27 03:39:32;;;;;;;1.42;1.02;;;;;;;15.61;100.00;93213.75;5050779;28;20441;-87
2021/06/27 03:41:59;;;;;;;3.30;1.58;;;;;;;15.64;100.00;93215.06;5050501;28;20079;-87
2021/06/27 03:44:28;;;;;;;2.88;1.75;;;;;;;15.63;100.00;93205.75;5050597;28;20095;-86
2021/06/27 03:46:55;;;;;;;2.13;1.42;;;;;;;15.70;100.00;93215.94;5050498;28;20094;-86
2021/06/27 03:49:22;;;;;;;2.53;1.48;;;;;;;15.69;100.00;93209.97;5050590;28;20049;-87
2021/06/27 03:51:49;;;;;;;1.70;1.00;;;;;;;15.74;100.00;93215.19;5043416;28;20053;-87
2021/06/27 03:54:18;;;;;;;3.80;1.80;;;;;;;15.80;100.00;93213.47;5030573;28;20436;-86
2021/06/27 03:56:45;;;;;;;3.90;2.15;;;;;;;15.86;100.00;93214.28;5033681;28;20041;-87
2021/06/27 03:59:12;;;;;;;5.45;2.13;;;;;;;15.92;100.00;93210.72;5032237;28;20452;-87
2021/06/27 04:01:39;;;;;;;3.30;1.45;;;;;;;16.02;100.00;93212.69;5033125;28;20081;-86
2021/06/27 04:04:06;;;;;;;7.82;1.25;;;;;;;16.05;100.00;93216.63;5050486;28;20049;-87
2021/06/27 04:06:33;;;;;;;1.52;1.23;;;;;;;16.06;100.00;93224.13;5045816;28;20054;-88
2021/06/27 04:09:00;;;;;;;2.05;1.13;;;;;;;16.12;100.00;93210.19;5030462;28;20057;-86
2021/06/27 04:11:28;;;;;;;4.32;1.63;;;;;;;16.19;100.00;93212.59;5037597;28;20045;-86
2021/06/27 04:13:55;;;;;;;2.35;1.67;;;;;;;16.13;100.00;93201.41;5054392;28;20045;-88
2021/06/27 04:16:22;;;;;;;1.23;0.63;;;;;;;16.27;100.00;93207.00;5048473;28;20095;-86
2021/06/27 04:18:48;;;;;;;3.05;1.60;;;;;;;16.37;100.00;93213.28;5045595;28;20143;-86
2021/06/27 04:21:15;;;;;;;1.88;0.77;;;;;;;16.46;100.00;93209.22;5041382;28;20132;-86
2021/06/27 04:23:42;;;;;;;2.25;1.13;;;;;;;16.55;100.00;93220.72;5044524;28;20044;-87
2021/06/27 04:26:09;;;;;;;3.63;2.08;;;;;;;16.65;100.00;93220.00;5042387;28;20068;-87
2021/06/27 04:28:37;;;;;;;5.50;1.15;;;;;;;16.74;100.00;93217.75;5052640;28;20087;-86
2021/06/27 04:31:04;;;;;;;2.25;1.50;;;;;;;16.81;100.00;93217.53;5053211;28;20053;-86
2021/06/27 04:33:31;;;;;;;2.92;1.65;;;;;;;16.90;100.00;93220.47;5037148;28;20048;-87
2021/06/27 04:35:58;;;;;;;3.55;1.40;;;;;;;16.96;100.00;93227.25;5053820;28;20072;-86
2021/06/27 04:38:25;;;;;;;1.65;0.90;;;;;;;16.89;100.00;93204.09;5053605;28;20412;-89
2021/06/27 04:40:52;;;;;;;3.17;1.77;;;;;;;17.08;100.00;93214.13;5035838;28;20060;-86
2021/06/27 04:43:19;;;;;;;1.95;1.25;;;;;;;17.21;100.00;93225.88;5034583;28;20045;-87
2021/06/27 04:45:48;;;;;;;2.95;1.02;;;;;;;17.32;100.00;93224.91;5053767;28;20106;-89
2021/06/27 04:48:15;;;;;;;1.33;1.17;;;;;;;17.43;100.00;93230.94;5053641;28;20144;-88
2021/06/27 04:50:43;;;;;;;3.92;1.23;;;;;;;17.49;100.00;93227.34;5053398;28;20107;-88
2021/06/27 04:53:11;;;;;;;1.25;0.93;;;;;;;17.52;100.00;93220.06;5053301;28;20064;-88
2021/06/27 04:55:38;;;;;;;1.80;1.00;;;;;;;17.63;100.00;93227.66;5053442;28;20041;-86
2021/06/27 04:58:05;;;;;;;2.38;1.85;;;;;;;17.64;100.00;93225.84;5053536;28;20102;-87
2021/06/27 05:00:32;;;;;;;2.22;1.45;;;;;;;17.74;100.00;93228.47;5038306;28;20042;-88
2021/06/27 05:03:01;;;;;;;4.85;2.42;;;;;;;17.69;100.00;93230.28;5033229;28;20053;-87
2021/06/27 05:05:28;;;;;;;1.73;1.42;;;;;;;17.78;100.00;93233.97;5033708;28;20556;-87
2021/06/27 05:07:55;;;;;;;2.38;1.15;;;;;;;17.93;100.00;93229.84;5033523;28;20441;-87
2021/06/27 05:10:22;;;;;;;3.05;1.70;;;;;;;18.09;100.00;93233.31;5033171;28;21017;-89
2021/06/27 05:12:49;;;;;;;3.78;1.95;;;;;;;18.36;100.00;93237.53;5033323;28;20089;-88
2021/06/27 05:15:16;;;;;;;1.88;1.20;;;;;;;18.27;100.00;93232.06;5033194;28;20052;-87
2021/06/27 05:17:42;;;;;;;2.35;1.35;;;;;;;18.54;100.00;93238.88;5033012;28;20140;-86
2021/06/27 05:20:12;;;;;;;2.17;1.50;;;;;;;18.46;100.00;93240.16;5032649;28;20095;-87
2021/06/27 05:22:40;;;;;;;1.17;0.77;;;;;;;18.56;100.00;93241.97;5032435;28;20050;-87
2021/06/27 05:25:08;;;;;;;4.03;1.88;;;;;;;18.72;100.00;93239.41;5032893;28;20149;-87
2021/06/27 05:27:35;;;;;;;2.03;1.27;;;;;;;18.69;100.00;93238.09;5033073;28;20053;-85
2021/06/27 05:30:01;;;;;;;3.63;1.80;;;;;;;19.06;100.00;93242.28;5033307;28;20049;-89
2021/06/27 05:32:28;;;;;;;3.08;1.40;;;;;;;19.30;100.00;93236.53;5043657;28;20053;-88
2021/06/27 05:34:55;;;;;;;5.25;2.28;;;;;;;19.55;99.95;93242.75;5039451;28;20489;-88
2021/06/27 05:37:23;;;;;;;15.57;4.50;;;;;;;19.72;98.15;93239.81;5052734;28;20060;-88
2021/06/27 05:39:50;;;;;;;6.10;2.75;;;;;;;19.98;96.78;93237.16;5040802;28;20045;-89
2021/06/27 05:42:18;;;;;;;5.22;3.15;;;;;;;19.99;96.36;93241.31;5032632;28;20448;-87
2021/06/27 05:44:45;;;;;;;3.08;2.45;;;;;;;20.42;95.82;93245.28;5032957;28;20049;-85
2021/06/27 05:47:12;;;;;;;8.50;3.47;;;;;;;20.77;95.29;93240.84;5034724;28;20056;-86
2021/06/27 05:49:39;;;;;;;4.97;2.80;;;;;;;21.16;92.50;93243.72;5052654;28;20084;-87
2021/06/27 05:52:06;;;;;;;6.70;3.67;;;;;;;21.44;91.13;93249.97;5052378;28;20114;-89
2021/06/27 05:54:34;;;;;;;10.02;3.42;;;;;;;21.61;90.58;93233.88;5052086;28;20102;-85
2021/06/27 05:57:01;;;;;;;7.55;3.28;;;;;;;21.87;89.21;93248.50;5052233;28;20049;-88
2021/06/27 05:59:28;;;;;;;8.35;3.85;;;;;;;21.98;89.83;93246.56;5052187;28;20045;-89
2021/06/27 06:01:55;;;;;;;6.75;4.00;;;;;;;22.11;89.32;93250.31;5052089;28;20434;-87
2021/06/27 06:04:22;;;;;;;5.38;2.97;;;;;;;22.18;86.98;93253.38;5048904;28;20049;-88
2021/06/27 06:06:48;;;;;;;6.95;3.92;;;;;;;22.29;87.76;93252.19;5037372;28;20090;-88
2021/06/27 06:09:15;;;;;;;8.30;3.33;;;;;;;22.12;87.26;93231.72;5032012;28;20049;-88
2021/06/27 06:11:45;;;;;;;4.93;3.05;;;;;;;22.25;87.34;93240.72;5034460;28;20490;-88
2021/06/27 06:14:12;;;;;;;7.78;3.03;;;;;;;22.27;87.53;93250.91;5031816;28;20056;-91
2021/06/27 06:16:39;;;;;;;6.40;4.05;;;;;;;22.32;87.04;93247.44;5032228;28;20054;-90
2021/06/27 06:19:07;;;;;;;3.35;2.00;;;;;;;22.47;88.20;93242.00;5032316;28;20046;-89
2021/06/27 06:21:34;;;;;;;7.80;2.70;;;;;;;22.57;88.16;93237.72;5046449;28;20041;-89
2021/06/27 06:24:01;;;;;;;9.57;2.67;;;;;;;22.69;87.93;93238.81;5031907;28;20041;-88
2021/06/27 06:26:28;;;;;;;4.57;2.00;;;;;;;22.81;85.98;93242.84;5031991;28;20509;-89
2021/06/27 06:28:56;;;;;;;4.00;1.50;;;;;;;22.73;85.07;93230.41;5031655;28;20042;-88
2021/06/27 06:31:22;;;;;;;6.22;3.67;;;;;;;23.01;85.32;93249.59;5031773;28;20049;-89
2021/06/27 06:33:49;;;;;;;3.15;1.60;;;;;;;23.22;85.39;93247.44;5030662;28;20049;-87
2021/06/27 06:36:16;;;;;;;3.72;1.08;;;;;;;23.71;83.18;93238.50;5031562;28;20045;-85
2021/06/27 06:38:43;;;;;;;2.92;1.63;;;;;;;24.13;80.10;93247.16;5036724;28;20041;-91
2021/06/27 06:41:10;;;;;;;2.45;0.95;;;;;;;24.36;81.02;93220.97;5051298;28;20048;-88
2021/06/27 06:43:37;;;;;;;4.30;0.95;;;;;;;24.95;79.74;93249.06;5051280;28;20052;-91
2021/06/27 06:46:05;;;;;;;1.65;0.82;;;;;;;25.14;78.15;93244.69;5051309;28;20408;-85
2021/06/27 06:48:32;;;;;;;2.25;1.00;;;;;;;25.51;76.57;93240.09;5051247;28;20436;-82
2021/06/27 06:50:59;;;;;;;2.10;1.10;;;;;;;25.71;76.16;93243.28;5051647;28;20049;-91
2021/06/27 06:53:26;;;;;;;1.50;0.90;;;;;;;25.55;74.78;93251.56;5053296;28;20052;-88
2021/06/27 06:55:56;;;;;;;2.90;0.98;;;;;;;25.72;75.37;93244.81;5051678;28;20128;-87
2021/06/27 06:58:23;;;;;;;2.80;1.75;;;;;;;26.09;75.05;93234.09;5051487;28;20052;-89
2021/06/27 07:00:50;;;;;;;1.63;1.02;;;;;;;26.48;71.99;93226.44;5051044;28;20508;-87
2021/06/27 07:03:18;;;;;;;6.65;2.08;;;;;;;26.91;70.01;93238.81;5051027;28;20044;-88
2021/06/27 07:05:45;;;;;;;2.63;1.05;;;;;;;27.00;70.63;93238.84;5051118;28;20049;-90
2021/06/27 07:08:12;;;;;;;2.53;1.52;;;;;;;26.95;69.91;93234.47;5051401;28;20045;-94
2021/06/27 07:10:39;;;;;;;2.42;1.17;;;;;;;26.41;70.26;93235.56;5052971;28;20488;-90
2021/06/27 07:13:06;;;;;;;4.13;2.53;;;;;;;26.42;71.54;93229.22;5051722;28;20397;-90
2021/06/27 07:15:32;;;;;;;2.65;1.20;;;;;;;26.08;73.83;93237.81;5051603;28;20048;-93
2021/06/27 07:17:59;;;;;;;1.75;0.98;;;;;;;25.72;73.79;93239.56;5052923;28;20049;-91
2021/06/27 07:20:28;;;;;;;7.45;2.75;;;;;;;26.08;73.84;93230.69;5046008;28;20494;-90
2021/06/27 07:22:54;;;;;;;2.22;1.40;;;;;;;26.57;72.50;93236.97;5037896;28;20814;-85
2021/06/27 07:25:21;;;;;;;3.15;1.40;;;;;;;26.14;73.15;93224.19;5051466;28;20106;-91
2021/06/27 07:27:48;;;;;;;1.55;0.93;;;;;;;26.62;70.40;93237.56;5050920;28;20102;-90
2021/06/27 07:30:15;;;;;;;6.38;2.40;;;;;;;27.10;70.43;93229.81;5050706;28;20045;-90
2021/06/27 07:32:42;;;;;;;2.55;1.58;;;;;;;27.07;70.35;93243.59;5051738;28;20049;-88
2021/06/27 07:35:09;;;;;;;8.25;2.45;;;;;;;27.41;69.41;93242.00;5050612;28;20045;-84
2021/06/27 07:37:38;;;;;;;6.82;1.50;;;;;;;27.71;69.91;93241.28;5050530;28;20118;-93
2021/06/27 07:40:06;;;;;;;2.42;1.42;;;;;;;27.72;67.82;93232.28;5034306;28;20049;-89
2021/06/27 07:42:33;;;;;;;2.83;1.27;;;;;;;28.16;68.16;93224.13;5030610;28;20041;-86
2021/06/27 07:44:59;;;;;;;2.38;1.52;;;;;;;28.61;66.82;93227.25;5032406;28;20045;-89
2021/06/27 07:47:26;;;;;;;3.38;1.75;;;;;;;28.92;64.84;93232.16;5034780;28;20049;-90
2021/06/27 07:49:53;;;;;;;6.43;1.70;;;;;;;29.02;64.74;93220.38;5034761;28;20046;-90
2021/06/27 07:52:20;;;;;;;2.03;1.25;;;;;;;28.30;65.40;93223.91;5035009;28;20053;-88
2021/06/27 07:54:48;;;;;;;2.00;0.95;;;;;;;28.15;64.61;93228.63;5035261;28;20053;-94
2021/06/27 07:57:15;;;;;;;3.47;1.35;;;;;;;28.43;66.55;93226.63;5035222;28;20049;-90
2021/06/27 07:59:42;;;;;;;4.65;0.95;;;;;;;28.20;64.88;93221.63;5035337;28;20103;-95
2021/06/27 08:02:09;;;;;;;1.00;0.68;;;;;;;27.10;66.74;93232.44;5034864;28;20054;-89
2021/06/27 08:04:36;;;;;;;1.30;0.77;;;;;;;27.66;69.23;93215.84;5034595;28;20045;-81
2021/06/27 08:07:03;;;;;;;2.25;1.25;;;;;;;28.40;66.51;93228.81;5034441;28;20054;-83
2021/06/27 08:09:29;;;;;;;1.67;1.05;;;;;;;28.83;62.88;93231.41;5034935;28;20051;-88
2021/06/27 08:11:58;;;;;;;2.88;1.27;;;;;;;29.05;62.03;93234.81;5034283;28;20539;-92
2021/06/27 08:14:24;;;;;;;1.20;0.68;;;;;;;29.08;61.32;93223.59;5035057;28;20052;-88
2021/06/27 08:16:51;;;;;;;2.20;1.10;;;;;;;29.01;59.04;93237.34;5034827;28;20397;-89
2021/06/27 08:19:18;;;;;;;5.00;1.55;;;;;;;28.98;60.86;93230.09;5034440;28;20045;-89
2021/06/27 08:21:45;;;;;;;1.52;0.70;;;;;;;28.69;60.87;93218.47;5050876;28;20052;-89
2021/06/27 08:24:12;;;;;;;1.15;0.70;;;;;;;28.00;62.67;93231.84;5054244;28;20053;-89
2021/06/27 08:26:38;;;;;;;2.38;1.00;;;;;;;28.50;61.60;93226.88;5053929;28;20387;-89
2021/06/27 08:29:07;;;;;;;1.58;0.70;;;;;;;28.31;61.54;93208.84;5053993;28;20052;-89
2021/06/27 08:31:33;;;;;;;2.25;0.77;;;;;;;28.57;60.84;93221.84;5053844;28;20444;-89
2021/06/27 08:34:00;;;;;;;1.27;0.73;;;;;;;28.83;59.75;93218.19;5053814;28;20447;-89
2021/06/27 08:36:29;;;;;;;2.50;1.42;;;;;;;29.04;60.37;93228.78;5054202;28;20049;-87
2021/06/27 08:38:56;;;;;;;1.35;0.70;;;;;;;29.02;59.21;93228.31;5046915;28;20041;-87
2021/06/27 08:41:23;;;;;;;3.03;0.98;;;;;;;28.46;60.57;93215.41;5034100;28;20050;-89
2021/06/27 08:43:50;;;;;;;1.60;0.80;;;;;;;28.32;60.26;93213.78;5033975;28;20417;-86
2021/06/27 08:46:20;;;;;;;6.10;1.95;;;;;;;28.74;60.39;93213.00;5053567;28;20049;-91
2021/06/27 08:48:48;;;;;;;4.18;1.35;;;;;;;28.00;61.26;93218.66;5058914;28;20053;-87
2021/06/27 08:51:14;;;;;;;4.32;2.25;;;;;;;28.63;63.06;93217.91;5063485;28;20045;-85
2021/06/27 08:53:43;;;;;;;3.88;2.63;;;;;;;29.18;59.90;93209.97;5060634;28;20056;-82
2021/06/27 08:56:11;;;;;;;3.47;1.58;;;;;;;29.21;57.69;93221.78;5052842;28;20059;-91
2021/06/27 08:58:40;;;;;;;3.40;1.98;;;;;;;28.54;59.44;93209.28;5053737;28;20045;-86
2021/06/27 09:01:14;;;;;;;2.15;1.30;;;;;;;28.50;58.51;93225.00;5053202;28;20629;-88
2021/06/27 09:03:44;;;;;;;3.15;1.63;;;;;;;27.41;61.08;93235.94;5053503;28;20045;-94
2021/06/27 09:06:10;;;;;;;2.50;1.77;;;;;;;27.07;60.99;93225.94;5053183;28;20056;-86
2021/06/27 09:08:38;;;;;;;5.05;1.88;;;;;;;26.91;62.18;93225.66;5053471;28;20045;-88
2021/06/27 09:11:14;;;;;;;2.83;1.42;;;;;;;26.79;62.14;93218.38;5053430;28;20547;-87
2021/06/27 09:13:41;;;;;;;;;;;;;;;26.93;62.05;93223.50;5041513;28;20045;-89
2021/06/27 09:16:21;;;;;;;2.55;1.00;;;;;;;27.33;62.14;93221.69;5033177;28;19936;-93
2021/06/27 09:18:50;;;;;;;6.55;1.67;;;;;;;28.04;60.48;93211.63;5033832;28;20397;-90
2021/06/27 09:21:17;;;;;;;2.08;1.33;;;;;;;28.27;56.66;93208.69;5046928;28;20052;-94
2021/06/27 09:23:47;;;;;;;3.22;1.30;;;;;;;28.75;55.77;93201.34;5053346;28;20443;-90
2021/06/27 09:26:26;;;;;;;2.53;1.60;;;;;;;28.77;54.62;93214.22;5047026;28;20072;-89
2021/06/27 09:28:53;;;;;;;2.55;1.10;;;;;;;28.12;52.83;93215.28;5050908;28;20055;-87
2021/06/27 09:31:34;;;;;;;2.03;1.35;;;;;;;28.27;54.34;93209.47;5053218;28;20516;-87
2021/06/27 09:34:03;;;;;;;4.70;1.17;;;;;;;28.66;54.25;93205.94;5053489;28;20045;-95
2021/06/27 09:36:30;;;;;;;2.17;1.17;;;;;;;29.08;53.32;93216.44;5052920;28;20508;-87
2021/06/27 09:38:57;;;;;;;5.97;1.30;;;;;;;29.43;52.59;93214.53;5045931;28;20041;-91
2021/06/27 09:41:28;;;;;;;1.20;0.80;;;;;;;29.68;49.71;93212.72;5036539;28;20049;-86
2021/06/27 09:43:57;;;;;;;3.13;1.55;;;;;;;29.46;47.71;93203.28;5052828;28;20087;-90
2021/06/27 09:46:35;;;;;;;2.00;1.17;;;;;;;29.87;47.97;93192.84;5053090;28;20103;-86
2021/06/27 09:49:06;;;;;;;2.08;1.23;;;;;;;30.09;48.85;93188.97;5052653;28;20041;-93
2021/06/27 09:51:34;;;;;;;1.42;0.98;;;;;;;30.21;49.02;93201.41;5054161;28;20051;-88
2021/06/27 09:54:02;;;;;;;3.47;1.00;;;;;;;29.81;50.38;93191.53;5053328;28;20048;-84
2021/06/27 09:56:37;;;;;;;2.83;1.55;;;;;;;30.27;49.66;93194.03;5052618;28;20044;-85
2021/06/27 09:59:05;;;;;;;1.75;0.80;;;;;;;29.66;51.21;93204.31;5052802;28;20143;-94
2021/06/27 10:01:33;;;;;;;2.35;1.38;;;;;;;29.04;51.88;93191.75;5052651;28;20048;-92
2021/06/27 10:04:02;;;;;;;1.52;0.77;;;;;;;28.52;54.50;93200.91;5054096;28;20102;-90
2021/06/27 10:06:32;;;;;;;2.50;1.52;;;;;;;27.45;56.51;93197.31;5054125;28;20091;-95
2021/06/27 10:09:11;;;;;;;2.17;1.17;;;;;;;27.72;58.98;93198.75;5052719;28;20058;-91
2021/06/27 10:11:38;;;;;;;3.58;1.20;;;;;;;28.44;54.85;93189.31;5052879;28;20389;-93
2021/06/27 10:14:10;;;;;;;2.88;1.75;;;;;;;28.42;52.85;93202.09;5052927;28;20049;-93
2021/06/27 10:16:38;;;;;;;1.70;0.90;;;;;;;28.13;54.05;93198.34;5053035;28;20145;-93
2021/06/27 10:19:06;;;;;;;1.88;1.17;;;;;;;28.39;55.44;93195.56;5054081;28;20040;-96
2021/06/27 10:21:35;;;;;;;2.17;1.63;;;;;;;28.71;54.06;93197.81;5037498;28;20083;-88
2021/06/27 10:24:02;;;;;;;1.42;0.93;;;;;;;28.71;53.68;93189.88;5032734;28;20053;-93
2021/06/27 10:26:30;;;;;;;4.72;1.10;;;;;;;29.26;50.96;93191.69;5032642;28;20060;-85
2021/06/27 10:28:57;;;;;;;1.67;0.80;;;;;;;28.76;50.58;93189.66;5032660;28;20140;-87
2021/06/27 10:31:26;;;;;;;2.65;1.52;;;;;;;29.46;49.63;93179.47;5031845;28;20045;-87
2021/06/27 10:33:54;;;;;;;1.00;0.40;;;;;;;29.59;48.93;93194.28;5031695;28;20053;-87
2021/06/27 10:36:29;;;;;;;1.10;1.00;;;;;;;29.84;50.10;93186.31;5031632;28;20050;-91
2021/06/27 10:39:00;;;;;;;9.90;2.58;;;;;;;29.90;48.63;93183.47;5038723;28;20041;-88
2021/06/27 10:41:56;;;;;;;1.40;0.88;;;;;;;29.50;49.65;93187.53;5048350;28;20098;-85
2021/06/27 10:44:25;;;;;;;1.90;1.23;;;;;;;29.70;49.23;93177.94;5051750;28;20085;-91
2021/06/27 10:46:54;;;;;;;2.30;1.10;;;;;;;30.30;49.86;93174.78;5051742;28;20056;-91
2021/06/27 10:49:51;;;;;;;1.27;0.70;;;;;;;30.36;47.94;93170.78;5051579;28;20044;-88
2021/06/27 10:52:18;;;;;;;1.40;0.80;;;;;;;30.54;49.37;93176.59;5051484;28;20576;-82
2021/06/27 10:55:16;;;;;;;2.50;1.10;;;;;;;29.78;50.92;93178.94;5051280;28;20049;-92
2021/06/27 10:58:01;;;;;;;2.28;0.50;;;;;;;30.02;50.01;93172.84;5052492;28;20045;-82
2021/06/27 11:00:29;;;;;;;0.93;0.43;;;;;;;30.60;47.98;93173.69;5051432;28;20064;-82
2021/06/27 11:03:28;;;;;;;2.00;0.57;;;;;;;30.12;46.70;93176.94;5051566;28;20045;-90
2021/06/27 11:05:58;;;;;;;1.17;0.70;;;;;;;29.83;44.95;93178.72;5051694;28;20099;-88
2021/06/27 11:08:33;;;;;;;6.55;1.25;;;;;;;29.99;47.45;93181.47;5052541;28;20049;-92
2021/06/27 11:11:11;;;;;;;1.15;0.52;;;;;;;29.68;44.95;93169.56;5051767;28;20049;-90
2021/06/27 11:13:39;;;;;;;1.42;0.80;;;;;;;29.49;44.64;93172.78;5051641;28;20052;-86
2021/06/27 11:16:17;;;;;;;1.60;0.60;;;;;;;28.93;45.91;93172.88;5051073;28;20132;-94
2021/06/27 11:18:46;;;;;;;8.95;1.48;;;;;;;29.52;44.96;93164.94;5051271;28;20489;-93
2021/06/27 11:21:25;;;;;;;2.10;0.60;;;;;;;29.24;47.13;93170.84;5045831;28;20045;-89
2021/06/27 11:24:00;;;;;;;0.95;0.63;;;;;;;29.77;46.73;93172.88;5040784;28;20045;-92
2021/06/27 11:26:55;;;;;;;1.33;0.80;;;;;;;29.63;43.39;93172.44;5049392;28;20128;-90
2021/06/27 11:29:40;;;;;;;;;;;;;;;30.09;43.99;93162.47;5051603;28;20134;-92
2021/06/27 11:32:44;;;;;;;1.80;0.65;;;;;;;30.10;43.25;93157.97;5051474;28;19921;-92
2021/06/27 11:35:44;;;;;;;1.53;0.77;;;;;;;30.34;40.93;93172.25;5051148;28;20052;-93